sensor_id;sensor_type;location;lat;lon;timestamp;P1;durP1;ratioP1;P2;durP2;ratioP2
21868;SDS011;11099;41.564;23.296;2023-08-20T00:00:09;4.80;;;2.92;;
21868;SDS011;11099;41.564;23.296;2023-08-20T00:02:36;3.45;;;2.90;;
21868;SDS011;11099;41.564;23.296;2023-08-20T00:05:06;3.38;;;2.50;;
21868;SDS011;11099;41.564;23.296;2023-08-20T00:07:33;3.03;;;2.80;;
21868;SDS011;11099;41.564;23.296;2023-08-20T00:09:58;5.55;;;2.80;;
21868;SDS011;11099;41.564;23.296;2023-08-20T00:12:24;3.25;;;2.95;;
21868;SDS011;11099;41.564;23.296;2023-08-20T00:14:55;3.90;;;2.60;;
21868;SDS011;11099;41.564;23.296;2023-08-20T00:17:24;5.47;;;2.63;;
21868;SDS011;11099;41.564;23.296;2023-08-20T00:19:52;2.80;;;2.60;;
21868;SDS011;11099;41.564;23.296;2023-08-20T00:22:21;4.75;;;2.70;;
21868;SDS011;11099;41.564;23.296;2023-08-20T00:24:48;3.22;;;2.95;;
21868;SDS011;11099;41.564;23.296;2023-08-20T00:27:13;5.80;;;2.80;;
21868;SDS011;11099;41.564;23.296;2023-08-20T00:29:39;4.10;;;2.70;;
21868;SDS011;11099;41.564;23.296;2023-08-20T00:32:04;3.08;;;2.88;;
21868;SDS011;11099;41.564;23.296;2023-08-20T00:34:30;3.13;;;2.58;;
21868;SDS011;11099;41.564;23.296;2023-08-20T00:36:55;2.47;;;2.33;;
21868;SDS011;11099;41.564;23.296;2023-08-20T00:39:21;3.22;;;2.78;;
21868;SDS011;11099;41.564;23.296;2023-08-20T00:41:46;2.80;;;2.60;;
21868;SDS011;11099;41.564;23.296;2023-08-20T00:44:12;3.10;;;2.75;;
21868;SDS011;11099;41.564;23.296;2023-08-20T00:46:38;2.95;;;2.60;;
21868;SDS011;11099;41.564;23.296;2023-08-20T00:49:03;4.50;;;3.00;;
21868;SDS011;11099;41.564;23.296;2023-08-20T00:51:32;5.90;;;2.70;;
21868;SDS011;11099;41.564;23.296;2023-08-20T00:53:59;6.30;;;2.80;;
21868;SDS011;11099;41.564;23.296;2023-08-20T00:56:25;12.25;;;3.13;;
21868;SDS011;11099;41.564;23.296;2023-08-20T00:58:52;3.00;;;2.80;;
21868;SDS011;11099;41.564;23.296;2023-08-20T01:01:19;3.20;;;3.00;;
21868;SDS011;11099;41.564;23.296;2023-08-20T01:03:45;3.97;;;2.95;;
21868;SDS011;11099;41.564;23.296;2023-08-20T01:06:20;2.83;;;2.50;;
21868;SDS011;11099;41.564;23.296;2023-08-20T01:08:59;4.43;;;3.10;;
21868;SDS011;11099;41.564;23.296;2023-08-20T01:11:33;4.20;;;3.13;;
21868;SDS011;11099;41.564;23.296;2023-08-20T01:14:13;3.45;;;3.05;;
21868;SDS011;11099;41.564;23.296;2023-08-20T01:16:40;9.38;;;3.60;;
21868;SDS011;11099;41.564;23.296;2023-08-20T01:19:06;6.82;;;3.40;;
21868;SDS011;11099;41.564;23.296;2023-08-20T01:21:38;4.72;;;3.83;;
21868;SDS011;11099;41.564;23.296;2023-08-20T01:27:00;3.10;;;2.90;;
21868;SDS011;11099;41.564;23.296;2023-08-20T01:29:36;5.93;;;3.78;;
21868;SDS011;11099;41.564;23.296;2023-08-20T01:32:02;6.10;;;3.80;;
21868;SDS011;11099;41.564;23.296;2023-08-20T01:34:30;3.80;;;3.40;;
21868;SDS011;11099;41.564;23.296;2023-08-20T01:36:56;3.72;;;3.17;;
21868;SDS011;11099;41.564;23.296;2023-08-20T01:39:21;5.53;;;3.60;;
21868;SDS011;11099;41.564;23.296;2023-08-20T01:41:47;3.70;;;3.40;;
21868;SDS011;11099;41.564;23.296;2023-08-20T01:44:12;5.55;;;3.53;;
21868;SDS011;11099;41.564;23.296;2023-08-20T01:46:38;4.53;;;3.90;;
21868;SDS011;11099;41.564;23.296;2023-08-20T01:49:03;3.50;;;3.20;;
21868;SDS011;11099;41.564;23.296;2023-08-20T01:51:29;4.32;;;3.35;;
21868;SDS011;11099;41.564;23.296;2023-08-20T01:53:54;3.40;;;3.10;;
21868;SDS011;11099;41.564;23.296;2023-08-20T01:56:20;6.72;;;2.70;;
21868;SDS011;11099;41.564;23.296;2023-08-20T01:58:45;5.68;;;3.05;;
21868;SDS011;11099;41.564;23.296;2023-08-20T02:01:11;3.47;;;3.17;;
21868;SDS011;11099;41.564;23.296;2023-08-20T02:03:36;2.95;;;2.75;;
21868;SDS011;11099;41.564;23.296;2023-08-20T02:06:04;2.97;;;2.78;;
21868;SDS011;11099;41.564;23.296;2023-08-20T02:08:30;4.70;;;2.60;;
21868;SDS011;11099;41.564;23.296;2023-08-20T02:10:59;4.30;;;2.63;;
21868;SDS011;11099;41.564;23.296;2023-08-20T02:13:26;3.20;;;2.92;;
21868;SDS011;11099;41.564;23.296;2023-08-20T02:15:58;5.43;;;3.40;;
21868;SDS011;11099;41.564;23.296;2023-08-20T02:18:24;7.38;;;3.75;;
21868;SDS011;11099;41.564;23.296;2023-08-20T02:20:50;5.93;;;3.88;;
21868;SDS011;11099;41.564;23.296;2023-08-20T02:23:16;3.90;;;3.28;;
21868;SDS011;11099;41.564;23.296;2023-08-20T02:25:43;5.55;;;3.55;;
21868;SDS011;11099;41.564;23.296;2023-08-20T02:28:08;4.90;;;3.33;;
21868;SDS011;11099;41.564;23.296;2023-08-20T02:30:38;4.07;;;3.67;;
21868;SDS011;11099;41.564;23.296;2023-08-20T02:33:05;4.68;;;3.35;;
21868;SDS011;11099;41.564;23.296;2023-08-20T02:35:31;6.63;;;3.75;;
21868;SDS011;11099;41.564;23.296;2023-08-20T02:37:56;5.32;;;3.33;;
21868;SDS011;11099;41.564;23.296;2023-08-20T02:40:22;4.65;;;3.50;;
21868;SDS011;11099;41.564;23.296;2023-08-20T02:42:47;4.15;;;3.85;;
21868;SDS011;11099;41.564;23.296;2023-08-20T02:45:13;9.18;;;3.95;;
21868;SDS011;11099;41.564;23.296;2023-08-20T02:47:38;5.30;;;4.20;;
21868;SDS011;11099;41.564;23.296;2023-08-20T02:50:04;5.20;;;4.38;;
21868;SDS011;11099;41.564;23.296;2023-08-20T02:52:29;5.22;;;3.53;;
21868;SDS011;11099;41.564;23.296;2023-08-20T02:54:55;3.92;;;3.58;;
21868;SDS011;11099;41.564;23.296;2023-08-20T02:57:20;3.70;;;3.40;;
21868;SDS011;11099;41.564;23.296;2023-08-20T02:59:46;4.97;;;3.40;;
21868;SDS011;11099;41.564;23.296;2023-08-20T03:02:12;3.75;;;3.45;;
21868;SDS011;11099;41.564;23.296;2023-08-20T03:04:37;3.95;;;3.60;;
21868;SDS011;11099;41.564;23.296;2023-08-20T03:07:03;3.85;;;3.53;;
21868;SDS011;11099;41.564;23.296;2023-08-20T03:09:28;4.80;;;3.42;;
21868;SDS011;11099;41.564;23.296;2023-08-20T03:11:54;5.50;;;4.05;;
21868;SDS011;11099;41.564;23.296;2023-08-20T03:14:19;7.88;;;4.22;;
21868;SDS011;11099;41.564;23.296;2023-08-20T03:16:44;6.93;;;3.83;;
21868;SDS011;11099;41.564;23.296;2023-08-20T03:19:10;4.38;;;3.97;;
21868;SDS011;11099;41.564;23.296;2023-08-20T03:21:35;4.18;;;3.88;;
21868;SDS011;11099;41.564;23.296;2023-08-20T03:24:01;5.15;;;3.80;;
21868;SDS011;11099;41.564;23.296;2023-08-20T03:26:27;4.68;;;4.22;;
21868;SDS011;11099;41.564;23.296;2023-08-20T03:28:52;6.53;;;4.57;;
21868;SDS011;11099;41.564;23.296;2023-08-20T03:31:18;4.72;;;4.20;;
21868;SDS011;11099;41.564;23.296;2023-08-20T03:33:43;6.15;;;4.03;;
21868;SDS011;11099;41.564;23.296;2023-08-20T03:36:09;5.07;;;4.07;;
21868;SDS011;11099;41.564;23.296;2023-08-20T03:38:34;5.25;;;4.22;;
21868;SDS011;11099;41.564;23.296;2023-08-20T03:41:00;5.88;;;4.38;;
21868;SDS011;11099;41.564;23.296;2023-08-20T03:43:26;4.68;;;4.28;;
21868;SDS011;11099;41.564;23.296;2023-08-20T03:45:54;5.82;;;4.68;;
21868;SDS011;11099;41.564;23.296;2023-08-20T03:48:23;4.55;;;4.10;;
21868;SDS011;11099;41.564;23.296;2023-08-20T03:50:50;4.97;;;4.40;;
21868;SDS011;11099;41.564;23.296;2023-08-20T03:53:16;4.75;;;4.35;;
21868;SDS011;11099;41.564;23.296;2023-08-20T03:55:41;5.10;;;4.43;;
21868;SDS011;11099;41.564;23.296;2023-08-20T03:58:07;4.95;;;4.43;;
21868;SDS011;11099;41.564;23.296;2023-08-20T04:00:34;4.45;;;4.13;;
21868;SDS011;11099;41.564;23.296;2023-08-20T04:02:59;4.63;;;4.22;;
21868;SDS011;11099;41.564;23.296;2023-08-20T04:05:25;4.88;;;4.40;;
21868;SDS011;11099;41.564;23.296;2023-08-20T04:07:50;4.80;;;4.40;;
21868;SDS011;11099;41.564;23.296;2023-08-20T04:10:16;4.88;;;4.47;;
21868;SDS011;11099;41.564;23.296;2023-08-20T04:12:41;6.15;;;4.30;;
21868;SDS011;11099;41.564;23.296;2023-08-20T04:15:07;4.80;;;4.40;;
21868;SDS011;11099;41.564;23.296;2023-08-20T04:17:33;4.53;;;4.20;;
21868;SDS011;11099;41.564;23.296;2023-08-20T04:19:58;7.45;;;4.22;;
21868;SDS011;11099;41.564;23.296;2023-08-20T04:22:24;5.72;;;4.30;;
21868;SDS011;11099;41.564;23.296;2023-08-20T04:24:50;6.32;;;4.35;;
21868;SDS011;11099;41.564;23.296;2023-08-20T04:27:16;5.30;;;4.45;;
21868;SDS011;11099;41.564;23.296;2023-08-20T04:29:44;4.70;;;4.20;;
21868;SDS011;11099;41.564;23.296;2023-08-20T04:32:09;4.78;;;4.32;;
21868;SDS011;11099;41.564;23.296;2023-08-20T04:34:35;5.18;;;4.60;;
21868;SDS011;11099;41.564;23.296;2023-08-20T04:37:01;8.23;;;4.75;;
21868;SDS011;11099;41.564;23.296;2023-08-20T04:39:34;4.93;;;4.63;;
21868;SDS011;11099;41.564;23.296;2023-08-20T04:42:05;7.40;;;4.35;;
21868;SDS011;11099;41.564;23.296;2023-08-20T04:44:30;6.50;;;4.78;;
21868;SDS011;11099;41.564;23.296;2023-08-20T04:46:56;7.43;;;4.85;;
21868;SDS011;11099;41.564;23.296;2023-08-20T04:49:21;4.88;;;4.25;;
21868;SDS011;11099;41.564;23.296;2023-08-20T04:51:47;6.30;;;4.82;;
21868;SDS011;11099;41.564;23.296;2023-08-20T04:54:12;5.80;;;4.40;;
21868;SDS011;11099;41.564;23.296;2023-08-20T04:56:38;5.97;;;4.85;;
21868;SDS011;11099;41.564;23.296;2023-08-20T04:59:03;9.25;;;4.50;;
21868;SDS011;11099;41.564;23.296;2023-08-20T05:01:29;5.95;;;4.80;;
21868;SDS011;11099;41.564;23.296;2023-08-20T05:03:54;9.25;;;4.53;;
21868;SDS011;11099;41.564;23.296;2023-08-20T05:06:20;6.38;;;5.18;;
21868;SDS011;11099;41.564;23.296;2023-08-20T05:08:45;10.27;;;4.50;;
21868;SDS011;11099;41.564;23.296;2023-08-20T05:11:11;8.32;;;4.97;;
21868;SDS011;11099;41.564;23.296;2023-08-20T05:13:36;9.20;;;4.90;;
21868;SDS011;11099;41.564;23.296;2023-08-20T05:16:02;6.00;;;5.25;;
21868;SDS011;11099;41.564;23.296;2023-08-20T05:18:27;5.25;;;4.75;;
21868;SDS011;11099;41.564;23.296;2023-08-20T05:20:53;7.28;;;4.57;;
21868;SDS011;11099;41.564;23.296;2023-08-20T05:23:18;6.50;;;4.65;;
21868;SDS011;11099;41.564;23.296;2023-08-20T05:25:44;6.70;;;4.65;;
21868;SDS011;11099;41.564;23.296;2023-08-20T05:28:09;6.28;;;4.53;;
21868;SDS011;11099;41.564;23.296;2023-08-20T05:30:35;5.03;;;4.25;;
21868;SDS011;11099;41.564;23.296;2023-08-20T05:33:00;5.68;;;4.45;;
21868;SDS011;11099;41.564;23.296;2023-08-20T05:35:26;6.95;;;4.80;;
21868;SDS011;11099;41.564;23.296;2023-08-20T05:37:51;6.68;;;4.72;;
21868;SDS011;11099;41.564;23.296;2023-08-20T05:40:17;10.60;;;5.57;;
21868;SDS011;11099;41.564;23.296;2023-08-20T05:42:43;7.00;;;4.88;;
21868;SDS011;11099;41.564;23.296;2023-08-20T05:45:08;5.13;;;4.72;;
21868;SDS011;11099;41.564;23.296;2023-08-20T05:47:34;6.18;;;5.20;;
21868;SDS011;11099;41.564;23.296;2023-08-20T05:50:00;6.07;;;5.00;;
21868;SDS011;11099;41.564;23.296;2023-08-20T05:52:25;9.18;;;4.97;;
21868;SDS011;11099;41.564;23.296;2023-08-20T05:54:51;6.85;;;4.82;;
21868;SDS011;11099;41.564;23.296;2023-08-20T05:57:16;10.23;;;5.63;;
21868;SDS011;11099;41.564;23.296;2023-08-20T05:59:42;7.13;;;5.05;;
21868;SDS011;11099;41.564;23.296;2023-08-20T06:02:07;8.00;;;4.57;;
21868;SDS011;11099;41.564;23.296;2023-08-20T06:04:33;7.82;;;5.30;;
21868;SDS011;11099;41.564;23.296;2023-08-20T06:06:58;7.18;;;5.13;;
21868;SDS011;11099;41.564;23.296;2023-08-20T06:09:24;9.63;;;4.90;;
21868;SDS011;11099;41.564;23.296;2023-08-20T06:11:49;8.07;;;4.85;;
21868;SDS011;11099;41.564;23.296;2023-08-20T06:14:16;5.90;;;5.13;;
21868;SDS011;11099;41.564;23.296;2023-08-20T06:16:42;5.47;;;4.60;;
21868;SDS011;11099;41.564;23.296;2023-08-20T06:19:07;6.68;;;4.90;;
21868;SDS011;11099;41.564;23.296;2023-08-20T06:21:33;7.05;;;4.93;;
21868;SDS011;11099;41.564;23.296;2023-08-20T06:23:59;12.43;;;5.00;;
21868;SDS011;11099;41.564;23.296;2023-08-20T06:26:25;11.57;;;5.47;;
21868;SDS011;11099;41.564;23.296;2023-08-20T06:28:50;6.05;;;5.47;;
21868;SDS011;11099;41.564;23.296;2023-08-20T06:31:16;6.45;;;5.15;;
21868;SDS011;11099;41.564;23.296;2023-08-20T06:33:41;6.55;;;5.05;;
21868;SDS011;11099;41.564;23.296;2023-08-20T06:36:07;9.40;;;5.05;;
21868;SDS011;11099;41.564;23.296;2023-08-20T06:38:32;7.82;;;5.10;;
21868;SDS011;11099;41.564;23.296;2023-08-20T06:40:58;12.18;;;4.97;;
21868;SDS011;11099;41.564;23.296;2023-08-20T06:43:23;5.22;;;4.68;;
21868;SDS011;11099;41.564;23.296;2023-08-20T06:45:48;6.05;;;4.40;;
21868;SDS011;11099;41.564;23.296;2023-08-20T06:48:14;6.15;;;4.20;;
21868;SDS011;11099;41.564;23.296;2023-08-20T06:50:41;7.72;;;4.53;;
21868;SDS011;11099;41.564;23.296;2023-08-20T06:53:07;7.90;;;5.22;;
21868;SDS011;11099;41.564;23.296;2023-08-20T06:55:32;4.95;;;4.55;;
21868;SDS011;11099;41.564;23.296;2023-08-20T06:57:58;5.95;;;4.90;;
21868;SDS011;11099;41.564;23.296;2023-08-20T07:00:23;6.35;;;4.68;;
21868;SDS011;11099;41.564;23.296;2023-08-20T07:02:48;6.90;;;5.07;;
21868;SDS011;11099;41.564;23.296;2023-08-20T07:05:14;7.28;;;4.88;;
21868;SDS011;11099;41.564;23.296;2023-08-20T07:07:40;7.40;;;5.43;;
21868;SDS011;11099;41.564;23.296;2023-08-20T07:10:06;12.63;;;5.28;;
21868;SDS011;11099;41.564;23.296;2023-08-20T07:12:32;11.23;;;5.20;;
21868;SDS011;11099;41.564;23.296;2023-08-20T07:14:58;6.43;;;5.10;;
21868;SDS011;11099;41.564;23.296;2023-08-20T07:17:23;6.70;;;4.82;;
21868;SDS011;11099;41.564;23.296;2023-08-20T07:19:49;8.32;;;5.10;;
21868;SDS011;11099;41.564;23.296;2023-08-20T07:22:15;4.90;;;4.35;;
21868;SDS011;11099;41.564;23.296;2023-08-20T07:24:40;7.35;;;4.95;;
21868;SDS011;11099;41.564;23.296;2023-08-20T07:27:06;5.97;;;5.03;;
21868;SDS011;11099;41.564;23.296;2023-08-20T07:29:36;6.03;;;4.55;;
21868;SDS011;11099;41.564;23.296;2023-08-20T07:32:01;4.60;;;4.10;;
21868;SDS011;11099;41.564;23.296;2023-08-20T07:34:28;5.68;;;4.40;;
21868;SDS011;11099;41.564;23.296;2023-08-20T07:36:54;5.80;;;4.38;;
21868;SDS011;11099;41.564;23.296;2023-08-20T07:39:19;9.45;;;4.50;;
21868;SDS011;11099;41.564;23.296;2023-08-20T07:41:45;5.80;;;4.35;;
21868;SDS011;11099;41.564;23.296;2023-08-20T07:44:10;4.93;;;4.40;;
21868;SDS011;11099;41.564;23.296;2023-08-20T07:46:36;6.55;;;4.97;;
21868;SDS011;11099;41.564;23.296;2023-08-20T07:49:01;5.70;;;4.55;;
21868;SDS011;11099;41.564;23.296;2023-08-20T07:51:27;5.65;;;4.50;;
21868;SDS011;11099;41.564;23.296;2023-08-20T07:53:52;6.00;;;4.75;;
21868;SDS011;11099;41.564;23.296;2023-08-20T07:56:18;6.68;;;4.90;;
21868;SDS011;11099;41.564;23.296;2023-08-20T07:58:43;5.22;;;4.38;;
21868;SDS011;11099;41.564;23.296;2023-08-20T08:01:09;6.47;;;4.55;;
21868;SDS011;11099;41.564;23.296;2023-08-20T08:03:34;5.07;;;4.57;;
21868;SDS011;11099;41.564;23.296;2023-08-20T08:06:00;4.88;;;4.47;;
21868;SDS011;11099;41.564;23.296;2023-08-20T08:08:25;5.75;;;4.65;;
21868;SDS011;11099;41.564;23.296;2023-08-20T08:10:51;6.85;;;4.70;;
21868;SDS011;11099;41.564;23.296;2023-08-20T08:13:20;5.15;;;4.65;;
21868;SDS011;11099;41.564;23.296;2023-08-20T08:15:47;8.15;;;4.35;;
21868;SDS011;11099;41.564;23.296;2023-08-20T08:18:13;6.00;;;4.32;;
21868;SDS011;11099;41.564;23.296;2023-08-20T08:20:39;4.82;;;4.13;;
21868;SDS011;11099;41.564;23.296;2023-08-20T08:23:04;5.35;;;4.90;;
21868;SDS011;11099;41.564;23.296;2023-08-20T08:25:30;10.80;;;8.77;;
21868;SDS011;11099;41.564;23.296;2023-08-20T08:27:55;11.93;;;7.70;;
21868;SDS011;11099;41.564;23.296;2023-08-20T08:30:21;5.75;;;5.25;;
21868;SDS011;11099;41.564;23.296;2023-08-20T08:32:46;10.07;;;7.03;;
21868;SDS011;11099;41.564;23.296;2023-08-20T08:35:12;14.93;;;7.85;;
21868;SDS011;11099;41.564;23.296;2023-08-20T08:37:37;5.93;;;4.32;;
21868;SDS011;11099;41.564;23.296;2023-08-20T08:40:03;5.10;;;4.20;;
21868;SDS011;11099;41.564;23.296;2023-08-20T08:42:31;4.30;;;3.83;;
21868;SDS011;11099;41.564;23.296;2023-08-20T08:44:57;4.30;;;3.90;;
21868;SDS011;11099;41.564;23.296;2023-08-20T08:47:25;3.97;;;3.63;;
21868;SDS011;11099;41.564;23.296;2023-08-20T08:49:50;3.70;;;3.50;;
21868;SDS011;11099;41.564;23.296;2023-08-20T08:52:19;4.93;;;3.33;;
21868;SDS011;11099;41.564;23.296;2023-08-20T08:54:47;4.18;;;3.30;;
21868;SDS011;11099;41.564;23.296;2023-08-20T08:57:14;5.88;;;4.10;;
21868;SDS011;11099;41.564;23.296;2023-08-20T08:59:39;3.97;;;3.22;;
21868;SDS011;11099;41.564;23.296;2023-08-20T09:02:10;5.38;;;3.60;;
21868;SDS011;11099;41.564;23.296;2023-08-20T09:04:40;3.70;;;3.40;;
21868;SDS011;11099;41.564;23.296;2023-08-20T09:07:10;3.85;;;3.65;;
21868;SDS011;11099;41.564;23.296;2023-08-20T09:09:37;4.05;;;3.75;;
21868;SDS011;11099;41.564;23.296;2023-08-20T09:12:12;4.10;;;3.65;;
21868;SDS011;11099;41.564;23.296;2023-08-20T09:14:48;5.07;;;3.40;;
21868;SDS011;11099;41.564;23.296;2023-08-20T09:17:15;4.07;;;3.78;;
21868;SDS011;11099;41.564;23.296;2023-08-20T09:19:42;3.72;;;3.20;;
21868;SDS011;11099;41.564;23.296;2023-08-20T09:22:11;8.32;;;3.85;;
21868;SDS011;11099;41.564;23.296;2023-08-20T09:24:41;3.70;;;3.40;;
21868;SDS011;11099;41.564;23.296;2023-08-20T09:27:09;4.68;;;3.92;;
21868;SDS011;11099;41.564;23.296;2023-08-20T09:29:46;5.20;;;3.63;;
21868;SDS011;11099;41.564;23.296;2023-08-20T09:35:28;4.40;;;4.00;;
21868;SDS011;11099;41.564;23.296;2023-08-20T09:37:58;4.30;;;3.63;;
21868;SDS011;11099;41.564;23.296;2023-08-20T09:40:25;4.07;;;3.63;;
21868;SDS011;11099;41.564;23.296;2023-08-20T09:42:51;4.63;;;3.78;;
21868;SDS011;11099;41.564;23.296;2023-08-20T09:45:19;4.10;;;3.70;;
21868;SDS011;11099;41.564;23.296;2023-08-20T09:47:46;3.85;;;3.42;;
21868;SDS011;11099;41.564;23.296;2023-08-20T09:50:14;3.97;;;3.78;;
21868;SDS011;11099;41.564;23.296;2023-08-20T09:52:55;4.38;;;3.40;;
21868;SDS011;11099;41.564;23.296;2023-08-20T09:55:24;4.30;;;3.47;;
21868;SDS011;11099;41.564;23.296;2023-08-20T09:57:54;4.45;;;3.70;;
21868;SDS011;11099;41.564;23.296;2023-08-20T10:00:21;4.10;;;3.78;;
21868;SDS011;11099;41.564;23.296;2023-08-20T10:02:47;4.72;;;3.40;;
21868;SDS011;11099;41.564;23.296;2023-08-20T10:05:14;4.72;;;3.60;;
21868;SDS011;11099;41.564;23.296;2023-08-20T10:07:40;3.50;;;3.25;;
21868;SDS011;11099;41.564;23.296;2023-08-20T10:10:08;4.53;;;3.83;;
21868;SDS011;11099;41.564;23.296;2023-08-20T10:12:38;5.07;;;3.45;;
21868;SDS011;11099;41.564;23.296;2023-08-20T10:15:07;3.92;;;3.63;;
21868;SDS011;11099;41.564;23.296;2023-08-20T10:17:35;5.53;;;3.55;;
21868;SDS011;11099;41.564;23.296;2023-08-20T10:20:03;6.05;;;3.60;;
21868;SDS011;11099;41.564;23.296;2023-08-20T10:22:36;3.80;;;3.50;;
21868;SDS011;11099;41.564;23.296;2023-08-20T10:25:09;3.63;;;3.30;;
21868;SDS011;11099;41.564;23.296;2023-08-20T10:27:37;4.20;;;3.33;;
21868;SDS011;11099;41.564;23.296;2023-08-20T10:30:16;3.70;;;3.40;;
21868;SDS011;11099;41.564;23.296;2023-08-20T10:32:49;3.22;;;2.85;;
21868;SDS011;11099;41.564;23.296;2023-08-20T10:35:22;3.35;;;3.13;;
21868;SDS011;11099;41.564;23.296;2023-08-20T10:46:07;5.13;;;3.88;;
21868;SDS011;11099;41.564;23.296;2023-08-20T10:48:37;8.05;;;3.55;;
21868;SDS011;11099;41.564;23.296;2023-08-20T10:59:17;3.53;;;3.22;;
21868;SDS011;11099;41.564;23.296;2023-08-20T11:01:47;3.15;;;2.85;;
21868;SDS011;11099;41.564;23.296;2023-08-20T11:04:17;5.70;;;3.30;;
21868;SDS011;11099;41.564;23.296;2023-08-20T11:06:44;4.40;;;3.63;;
21868;SDS011;11099;41.564;23.296;2023-08-20T11:09:11;3.90;;;3.50;;
21868;SDS011;11099;41.564;23.296;2023-08-20T11:11:40;3.70;;;3.40;;
21868;SDS011;11099;41.564;23.296;2023-08-20T11:14:07;4.28;;;3.88;;
21868;SDS011;11099;41.564;23.296;2023-08-20T11:16:38;3.95;;;3.60;;
21868;SDS011;11099;41.564;23.296;2023-08-20T11:19:04;4.50;;;3.95;;
21868;SDS011;11099;41.564;23.296;2023-08-20T11:21:34;3.88;;;3.58;;
21868;SDS011;11099;41.564;23.296;2023-08-20T11:24:03;3.50;;;3.22;;
21868;SDS011;11099;41.564;23.296;2023-08-20T11:26:29;5.93;;;3.63;;
21868;SDS011;11099;41.564;23.296;2023-08-20T11:28:55;3.72;;;3.42;;
21868;SDS011;11099;41.564;23.296;2023-08-20T11:31:21;4.68;;;3.00;;
21868;SDS011;11099;41.564;23.296;2023-08-20T11:33:48;2.95;;;2.75;;
21868;SDS011;11099;41.564;23.296;2023-08-20T11:36:19;4.10;;;3.05;;
21868;SDS011;11099;41.564;23.296;2023-08-20T11:38:51;3.88;;;3.53;;
21868;SDS011;11099;41.564;23.296;2023-08-20T11:41:18;3.33;;;3.13;;
21868;SDS011;11099;41.564;23.296;2023-08-20T11:43:45;3.35;;;2.80;;
21868;SDS011;11099;41.564;23.296;2023-08-20T11:46:14;3.35;;;3.08;;
21868;SDS011;11099;41.564;23.296;2023-08-20T11:51:28;2.83;;;2.63;;
21868;SDS011;11099;41.564;23.296;2023-08-20T11:54:04;4.80;;;3.38;;
21868;SDS011;11099;41.564;23.296;2023-08-20T11:56:35;3.15;;;2.95;;
21868;SDS011;11099;41.564;23.296;2023-08-20T11:59:03;4.88;;;3.45;;
21868;SDS011;11099;41.564;23.296;2023-08-20T12:01:32;5.32;;;2.83;;
21868;SDS011;11099;41.564;23.296;2023-08-20T12:04:04;4.13;;;2.92;;
21868;SDS011;11099;41.564;23.296;2023-08-20T12:06:31;3.70;;;3.05;;
21868;SDS011;11099;41.564;23.296;2023-08-20T12:08:57;3.30;;;3.00;;
21868;SDS011;11099;41.564;23.296;2023-08-20T12:11:24;4.85;;;3.20;;
21868;SDS011;11099;41.564;23.296;2023-08-20T12:13:51;8.90;;;3.03;;
21868;SDS011;11099;41.564;23.296;2023-08-20T12:16:17;2.70;;;2.50;;
21868;SDS011;11099;41.564;23.296;2023-08-20T12:18:43;4.88;;;3.13;;
21868;SDS011;11099;41.564;23.296;2023-08-20T12:21:10;3.70;;;2.85;;
21868;SDS011;11099;41.564;23.296;2023-08-20T12:23:36;4.47;;;2.97;;
21868;SDS011;11099;41.564;23.296;2023-08-20T12:26:02;2.92;;;2.78;;
21868;SDS011;11099;41.564;23.296;2023-08-20T12:28:27;4.88;;;3.10;;
21868;SDS011;11099;41.564;23.296;2023-08-20T12:30:54;2.97;;;2.78;;
21868;SDS011;11099;41.564;23.296;2023-08-20T12:33:19;4.28;;;2.90;;
21868;SDS011;11099;41.564;23.296;2023-08-20T12:35:46;4.68;;;3.00;;
21868;SDS011;11099;41.564;23.296;2023-08-20T12:38:11;2.92;;;2.72;;
21868;SDS011;11099;41.564;23.296;2023-08-20T12:40:37;5.18;;;3.08;;
21868;SDS011;11099;41.564;23.296;2023-08-20T12:43:03;5.05;;;2.60;;
21868;SDS011;11099;41.564;23.296;2023-08-20T12:45:29;4.03;;;2.42;;
21868;SDS011;11099;41.564;23.296;2023-08-20T12:47:55;4.72;;;2.97;;
21868;SDS011;11099;41.564;23.296;2023-08-20T12:50:20;4.70;;;2.40;;
21868;SDS011;11099;41.564;23.296;2023-08-20T12:52:46;3.20;;;2.83;;
21868;SDS011;11099;41.564;23.296;2023-08-20T12:55:14;7.20;;;2.58;;
21868;SDS011;11099;41.564;23.296;2023-08-20T12:57:51;3.40;;;2.55;;
21868;SDS011;11099;41.564;23.296;2023-08-20T13:00:19;5.68;;;2.45;;
21868;SDS011;11099;41.564;23.296;2023-08-20T13:02:45;2.58;;;2.38;;
21868;SDS011;11099;41.564;23.296;2023-08-20T13:05:11;3.60;;;2.35;;
21868;SDS011;11099;41.564;23.296;2023-08-20T13:07:37;2.40;;;2.20;;
21868;SDS011;11099;41.564;23.296;2023-08-20T13:10:03;2.75;;;2.55;;
21868;SDS011;11099;41.564;23.296;2023-08-20T13:12:29;2.35;;;2.15;;
21868;SDS011;11099;41.564;23.296;2023-08-20T13:14:58;2.63;;;2.53;;
21868;SDS011;11099;41.564;23.296;2023-08-20T13:17:24;2.53;;;2.17;;
21868;SDS011;11099;41.564;23.296;2023-08-20T13:19:51;2.92;;;2.42;;
21868;SDS011;11099;41.564;23.296;2023-08-20T13:22:16;3.67;;;2.28;;
21868;SDS011;11099;41.564;23.296;2023-08-20T13:24:42;2.85;;;2.08;;
21868;SDS011;11099;41.564;23.296;2023-08-20T13:27:08;2.85;;;2.20;;
21868;SDS011;11099;41.564;23.296;2023-08-20T13:29:34;4.18;;;2.42;;
21868;SDS011;11099;41.564;23.296;2023-08-20T13:31:59;4.82;;;2.10;;
21868;SDS011;11099;41.564;23.296;2023-08-20T13:34:25;5.38;;;2.40;;
21868;SDS011;11099;41.564;23.296;2023-08-20T13:36:51;4.13;;;1.92;;
21868;SDS011;11099;41.564;23.296;2023-08-20T13:39:16;2.58;;;2.20;;
21868;SDS011;11099;41.564;23.296;2023-08-20T13:41:43;2.35;;;2.15;;
21868;SDS011;11099;41.564;23.296;2023-08-20T13:46:37;6.32;;;2.15;;
21868;SDS011;11099;41.564;23.296;2023-08-20T13:49:02;3.03;;;2.30;;
21868;SDS011;11099;41.564;23.296;2023-08-20T13:51:28;6.07;;;2.05;;
21868;SDS011;11099;41.564;23.296;2023-08-20T13:53:54;3.38;;;2.35;;
21868;SDS011;11099;41.564;23.296;2023-08-20T13:56:20;2.58;;;1.70;;
21868;SDS011;11099;41.564;23.296;2023-08-20T13:58:45;2.30;;;2.00;;
21868;SDS011;11099;41.564;23.296;2023-08-20T14:01:11;4.70;;;2.40;;
21868;SDS011;11099;41.564;23.296;2023-08-20T14:03:38;5.80;;;2.10;;
21868;SDS011;11099;41.564;23.296;2023-08-20T14:06:04;2.05;;;1.95;;
21868;SDS011;11099;41.564;23.296;2023-08-20T14:08:30;4.38;;;2.45;;
21868;SDS011;11099;41.564;23.296;2023-08-20T14:10:56;3.17;;;2.03;;
21868;SDS011;11099;41.564;23.296;2023-08-20T14:13:21;9.10;;;2.47;;
21868;SDS011;11099;41.564;23.296;2023-08-20T14:15:47;2.40;;;2.20;;
21868;SDS011;11099;41.564;23.296;2023-08-20T14:18:12;2.58;;;1.90;;
21868;SDS011;11099;41.564;23.296;2023-08-20T14:20:38;5.38;;;2.35;;
21868;SDS011;11099;41.564;23.296;2023-08-20T14:23:03;2.30;;;2.10;;
21868;SDS011;11099;41.564;23.296;2023-08-20T14:25:29;4.78;;;2.38;;
21868;SDS011;11099;41.564;23.296;2023-08-20T14:27:54;1.95;;;1.85;;
21868;SDS011;11099;41.564;23.296;2023-08-20T14:30:20;2.25;;;2.10;;
21868;SDS011;11099;41.564;23.296;2023-08-20T14:32:45;2.00;;;1.90;;
21868;SDS011;11099;41.564;23.296;2023-08-20T14:35:11;2.22;;;2.13;;
21868;SDS011;11099;41.564;23.296;2023-08-20T14:37:37;2.13;;;1.77;;
21868;SDS011;11099;41.564;23.296;2023-08-20T14:40:02;3.97;;;2.28;;
21868;SDS011;11099;41.564;23.296;2023-08-20T14:42:31;3.83;;;1.90;;
21868;SDS011;11099;41.564;23.296;2023-08-20T14:44:57;3.45;;;2.22;;
21868;SDS011;11099;41.564;23.296;2023-08-20T14:47:22;3.05;;;2.10;;
21868;SDS011;11099;41.564;23.296;2023-08-20T14:49:48;4.53;;;2.35;;
21868;SDS011;11099;41.564;23.296;2023-08-20T14:52:14;3.58;;;2.00;;
21868;SDS011;11099;41.564;23.296;2023-08-20T14:54:39;2.05;;;1.83;;
21868;SDS011;11099;41.564;23.296;2023-08-20T14:57:07;3.88;;;2.08;;